Time;durP1;ratioP1;P1;durP2;ratioP2;P2;SDS_P1;SDS_P2;PMS_P1;PMS_P2;Temp;Humidity;BMP_temperature;BMP_pressure;BME280_temperature;BME280_humidity;BME280_pressure;Samples;Min_cycle;Max_cycle;Signal;HPM_P1;HPM_P2
2023/08/04 00:00:17;;;;;;;;;;;;;;;21.86;55.58;100326.28;5095989;28;1533;-24
2023/08/04 00:02:42;;;;;;;;;;;;;;;24.01;48.92;100335.91;5096161;28;893;-24
2023/08/04 00:05:08;;;;;;;;;;;;;;;21.87;56.16;100329.81;5096055;28;1078;-22
2023/08/04 00:07:34;;;;;;;;;;;;;;;24.06;48.76;100320.97;5095858;28;1973;-23
2023/08/04 00:09:59;;;;;;;;;;;;;;;21.77;56.94;100325.34;5078247;28;1189;-22
2023/08/04 00:12:25;;;;;;;;;;;;;;;24.07;48.66;100316.44;5096080;28;1118;-22
2023/08/04 00:14:51;;;;;;;;;;;;;;;21.80;56.81;100318.88;5095222;28;826;-22
2023/08/04 00:17:16;;;;;;;;;;;;;;;24.30;48.14;100313.00;5096033;28;1070;-22
2023/08/04 00:19:42;;;;;;;;;;;;;;;21.80;56.88;100312.66;5096009;28;1250;-22
2023/08/04 00:22:07;;;;;;;;;;;;;;;24.41;48.32;100312.63;5095889;28;1055;-23
2023/08/04 00:24:33;;;;;;;;;;;;;;;21.87;57.14;100313.72;5096236;28;1118;-22
2023/08/04 00:26:59;;;;;;;;;;;;;;;24.27;48.23;100306.16;5095483;28;896;-22
2023/08/04 00:29:24;;;;;;;;;;;;;;;21.89;57.11;100309.03;5095878;28;1967;-22
2023/08/04 00:31:50;;;;;;;;;;;;;;;24.25;47.69;100310.84;5080779;28;1051;-23
2023/08/04 00:34:15;;;;;;;;;;;;;;;21.76;57.46;100304.06;5100105;28;1110;-24
2023/08/04 00:36:41;;;;;;;;;;;;;;;24.51;47.99;100308.88;5081954;28;1114;-22
2023/08/04 00:39:06;;;;;;;;;;;;;;;21.74;57.47;100306.91;5081608;28;1071;-24
2023/08/04 00:41:32;;;;;;;;;;;;;;;24.46;47.10;100304.88;5081539;28;1112;-22
2023/08/04 00:43:58;;;;;;;;;;;;;;;21.79;54.89;100301.13;5097484;28;1077;-22
2023/08/04 00:46:23;;;;;;;;;;;;;;;23.91;48.39;100293.97;5088342;28;1054;-22
2023/08/04 00:48:49;;;;;;;;;;;;;;;21.80;55.60;100296.59;5086073;28;1992;-22
2023/08/04 00:51:14;;;;;;;;;;;;;;;24.26;47.02;100292.84;5099297;28;828;-23
2023/08/04 00:53:40;;;;;;;;;;;;;;;22.18;52.44;100294.47;5081779;28;1171;-24
2023/08/04 00:56:05;;;;;;;;;;;;;;;23.70;50.62;100294.53;5098281;28;1349;-22
2023/08/04 00:58:32;;;;;;;;;;;;;;;21.90;54.38;100292.00;5087221;28;987;-23
2023/08/04 01:00:58;;;;;;;;;;;;;;;23.99;50.13;100295.78;5098914;28;1054;-22
2023/08/04 01:03:24;;;;;;;;;;;;;;;21.99;53.91;100293.69;5064285;28;1052;-22
2023/08/04 01:05:53;;;;;;;;;;;;;;;24.16;48.68;100291.22;5099349;28;1074;-23
2023/08/04 01:08:22;;;;;;;;;;;;;;;21.85;54.67;100295.16;5099859;28;1902;-22
2023/08/04 01:10:51;;;;;;;;;;;;;;;24.16;48.58;100293.91;5081087;28;1107;-23
2023/08/04 01:13:20;;;;;;;;;;;;;;;21.85;55.45;100300.50;5081031;28;1668;-22
2023/08/04 01:15:46;;;;;;;;;;;;;;;24.41;48.38;100309.09;5081865;28;1189;-24
2023/08/04 01:18:11;;;;;;;;;;;;;;;23.53;49.08;100305.31;5099426;28;1197;-22
2023/08/04 01:20:37;;;;;;;;;;;;;;;23.57;51.09;100306.63;5097004;28;1333;-23
2023/08/04 01:23:02;;;;;;;;;;;;;;;23.08;50.02;100304.78;5074395;28;1519;-23
2023/08/04 01:25:29;;;;;;;;;;;;;;;23.56;50.21;100304.09;5085451;28;1016;-22
2023/08/04 01:27:59;;;;;;;;;;;;;;;22.84;50.64;100303.72;5098876;28;1914;-22
2023/08/04 01:30:25;;;;;;;;;;;;;;;23.69;49.67;100304.44;5051606;28;1231;-23
2023/08/04 01:32:51;;;;;;;;;;;;;;;24.99;47.13;100300.69;5098944;28;1059;-24
2023/08/04 01:35:16;;;;;;;;;;;;;;;22.08;55.01;100307.13;5098933;28;1007;-23
2023/08/04 01:37:43;;;;;;;;;;;;;;;24.51;48.39;100307.03;5079493;28;1186;-23
2023/08/04 01:40:09;;;;;;;;;;;;;;;22.09;55.39;100303.44;5076889;28;1135;-22
2023/08/04 01:42:35;;;;;;;;;;;;;;;24.42;46.56;100300.03;5080330;28;1217;-22
2023/08/04 01:45:00;;;;;;;;;;;;;;;21.91;56.27;100301.69;5080468;28;1177;-23
2023/08/04 01:47:26;;;;;;;;;;;;;;;24.49;47.00;100294.78;5098296;28;1971;-24
2023/08/04 01:49:51;;;;;;;;;;;;;;;24.79;46.29;100301.16;5076515;28;880;-23
2023/08/04 01:52:17;;;;;;;;;;;;;;;23.03;51.69;100304.44;5095968;28;1082;-23
2023/08/04 01:54:43;;;;;;;;;;;;;;;25.04;45.57;100301.00;5098488;28;1074;-23
2023/08/04 01:57:08;;;;;;;;;;;;;;;21.97;55.94;100303.72;5079877;28;1102;-22
2023/08/04 01:59:34;;;;;;;;;;;;;;;24.41;46.54;100307.25;5098388;28;1095;-25
2023/08/04 02:01:59;;;;;;;;;;;;;;;21.98;55.97;100310.78;5097974;28;1094;-22
2023/08/04 02:04:25;;;;;;;;;;;;;;;24.40;47.00;100304.75;5098331;28;1018;-24
2023/08/04 02:06:51;;;;;;;;;;;;;;;22.72;50.61;100304.03;5080015;28;1223;-23
2023/08/04 02:09:16;;;;;;;;;;;;;;;23.79;49.06;100309.59;5080063;28;1973;-22
2023/08/04 02:11:42;;;;;;;;;;;;;;;25.00;48.04;100306.94;5084366;28;1118;-23
2023/08/04 02:14:08;;;;;;;;;;;;;;;22.02;55.56;100312.13;5090995;28;1094;-23
2023/08/04 02:16:33;;;;;;;;;;;;;;;24.66;46.92;100317.03;5095056;28;1143;-23
2023/08/04 02:19:04;;;;;;;;;;;;;;;22.07;53.35;100311.63;5079609;28;1222;-22
2023/08/04 02:21:30;;;;;;;;;;;;;;;24.13;48.67;100318.41;5096778;28;1355;-22
2023/08/04 02:23:56;;;;;;;;;;;;;;;24.95;47.23;100315.53;5092265;28;1493;-22
2023/08/04 02:26:21;;;;;;;;;;;;;;;22.47;53.58;100320.03;5076654;28;1499;-23
2023/08/04 02:28:49;;;;;;;;;;;;;;;24.75;46.12;100324.06;5096622;28;1981;-22
2023/08/04 02:31:17;;;;;;;;;;;;;;;21.87;56.25;100327.94;5079204;28;1079;-22
2023/08/04 02:33:44;;;;;;;;;;;;;;;24.31;47.24;100320.91;5089865;28;1067;-24
2023/08/04 02:36:10;;;;;;;;;;;;;;;22.01;52.91;100329.22;5095472;28;1199;-23
2023/08/04 02:38:36;;;;;;;;;;;;;;;23.93;49.38;100323.34;5074962;28;1304;-23
2023/08/04 02:41:04;;;;;;;;;;;;;;;23.19;48.95;100325.91;5097723;28;1126;-22
2023/08/04 02:43:30;;;;;;;;;;;;;;;23.43;49.74;100326.09;5097866;28;1134;-22
2023/08/04 02:45:56;;;;;;;;;;;;;;;25.03;45.87;100328.09;5097468;28;1035;-22
2023/08/04 02:48:22;;;;;;;;;;;;;;;21.94;54.92;100335.38;5097307;28;1902;-22
2023/08/04 02:50:56;;;;;;;;;;;;;;;24.32;47.25;100330.63;5078785;28;1137;-22
2023/08/04 02:53:22;;;;;;;;;;;;;;;21.98;55.62;100336.72;5096731;28;1086;-22
2023/08/04 02:55:47;;;;;;;;;;;;;;;24.40;47.20;100331.63;5097295;28;1132;-23
2023/08/04 02:58:13;;;;;;;;;;;;;;;24.53;46.72;100336.44;5097518;28;1136;-23
2023/08/04 03:00:38;;;;;;;;;;;;;;;23.09;51.45;100336.78;5096791;28;1127;-22
2023/08/04 03:03:04;;;;;;;;;;;;;;;25.22;45.19;100337.56;5092839;28;1182;-24
2023/08/04 03:05:34;;;;;;;;;;;;;;;23.41;50.59;100339.69;5092745;28;975;-26
2023/08/04 03:07:59;;;;;;;;;;;;;;;22.44;56.63;100335.59;5096536;28;1984;-26
2023/08/04 03:10:25;;;;;;;;;;;;;;;22.07;59.44;100335.75;5096992;28;1212;-25
2023/08/04 03:12:50;;;;;;;;;;;;;;;22.01;60.70;100336.38;5097050;28;1046;-27
2023/08/04 03:15:16;;;;;;;;;;;;;;;22.01;61.11;100342.59;5085444;28;1507;-24
2023/08/04 03:17:41;;;;;;;;;;;;;;;23.65;57.17;100334.47;5094180;28;1222;-24
2023/08/04 03:20:07;;;;;;;;;;;;;;;25.29;50.91;100343.06;5096563;28;991;-23
2023/08/04 03:22:33;;;;;;;;;;;;;;;25.71;49.78;100340.03;5096732;28;1031;-24
2023/08/04 03:24:58;;;;;;;;;;;;;;;26.07;50.77;100343.88;5096945;28;1141;-24
2023/08/04 03:27:24;;;;;;;;;;;;;;;26.29;48.97;100352.88;5096250;28;1204;-24
2023/08/04 03:29:50;;;;;;;;;;;;;;;25.98;50.11;100354.72;5096819;28;1906;-22
2023/08/04 03:32:15;;;;;;;;;;;;;;;23.41;56.30;100350.44;5096126;28;1086;-23
2023/08/04 03:34:41;;;;;;;;;;;;;;;22.62;57.93;100339.03;5078507;28;1075;-23
2023/08/04 03:37:06;;;;;;;;;;;;;;;22.42;57.70;100346.47;5096318;28;1030;-24
2023/08/04 03:39:32;;;;;;;;;;;;;;;22.14;58.73;100352.88;5096430;28;1090;-23
2023/08/04 03:41:57;;;;;;;;;;;;;;;22.01;58.74;100350.63;5096453;28;1031;-24
2023/08/04 03:44:23;;;;;;;;;;;;;;;22.89;58.76;100349.66;5096983;28;1105;-23
2023/08/04 03:46:48;;;;;;;;;;;;;;;24.99;51.31;100354.53;5096386;28;1247;-24
2023/08/04 03:49:14;;;;;;;;;;;;;;;25.74;49.51;100355.84;5096508;28;1902;-23
2023/08/04 03:51:39;;;;;;;;;;;;;;;26.20;47.92;100356.69;5096825;28;1154;-25
2023/08/04 03:54:05;;;;;;;;;;;;;;;26.41;47.89;100362.19;5096023;28;1126;-24
2023/08/04 03:56:31;;;;;;;;;;;;;;;26.68;49.90;100363.53;5084003;28;1063;-22
2023/08/04 03:58:56;;;;;;;;;;;;;;;22.91;58.21;100355.72;5076504;28;1189;-23
2023/08/04 04:01:22;;;;;;;;;;;;;;;22.17;66.63;100358.94;5089070;28;1210;-24
2023/08/04 04:03:47;;;;;;;;;;;;;;;21.76;67.62;100355.78;5094968;28;1224;-24
2023/08/04 04:06:13;;;;;;;;;;;;;;;21.67;67.14;100356.72;5095339;28;1153;-23
2023/08/04 04:08:38;;;;;;;;;;;;;;;21.67;67.16;100363.94;5078226;28;1902;-23
2023/08/04 04:11:04;;;;;;;;;;;;;;;24.56;56.23;100365.66;5095831;28;995;-24
2023/08/04 04:13:30;;;;;;;;;;;;;;;22.35;64.66;100365.06;5064932;28;1069;-25
2023/08/04 04:15:55;;;;;;;;;;;;;;;21.57;68.58;100364.03;5080257;28;1154;-25
2023/08/04 04:18:21;;;;;;;;;;;;;;;22.07;71.82;100364.41;5077369;28;1043;-24
2023/08/04 04:20:46;;;;;;;;;;;;;;;22.14;70.58;100366.28;5095866;28;1040;-22
2023/08/04 04:23:12;;;;;;;;;;;;;;;22.44;72.87;100365.09;5080549;28;1058;-24
2023/08/04 04:25:37;;;;;;;;;;;;;;;24.89;64.89;100365.47;5064981;28;1189;-24
2023/08/04 04:28:03;;;;;;;;;;;;;;;23.58;68.17;100366.53;5080950;28;1905;-22
2023/08/04 04:30:29;;;;;;;;;;;;;;;21.75;69.99;100361.31;5089293;28;1099;-27
2023/08/04 04:32:55;;;;;;;;;;;;;;;21.20;68.58;100368.53;5083678;28;1123;-25
2023/08/04 04:35:20;;;;;;;;;;;;;;;23.38;63.55;100366.84;5094175;28;1023;-26
2023/08/04 04:37:46;;;;;;;;;;;;;;;22.53;61.98;100377.50;5084024;28;1018;-22
2023/08/04 04:40:11;;;;;;;;;;;;;;;21.37;65.52;100375.72;5084373;28;1078;-22
2023/08/04 04:42:37;;;;;;;;;;;;;;;23.79;60.05;100370.56;5075954;28;972;-26
2023/08/04 04:45:03;;;;;;;;;;;;;;;21.84;63.08;100379.13;5075760;28;1122;-26
2023/08/04 04:47:28;;;;;;;;;;;;;;;21.16;66.20;100370.66;5080539;28;1050;-25
2023/08/04 04:49:54;;;;;;;;;;;;;;;23.52;60.12;100373.44;5095927;28;1982;-26
2023/08/04 04:52:28;;;;;;;;;;;;;;;21.65;63.43;100374.78;5081953;28;1202;-27
2023/08/04 04:54:54;;;;;;;;;;;;;;;21.62;67.60;100380.47;5095522;28;1015;-28
2023/08/04 04:57:20;;;;;;;;;;;;;;;23.97;57.85;100379.25;5076632;28;1002;-23
2023/08/04 04:59:46;;;;;;;;;;;;;;;21.09;65.00;100385.63;5087773;28;1162;-22
2023/08/04 05:02:11;;;;;;;;;;;;;;;22.00;65.57;100388.28;5090030;28;1077;-28
2023/08/04 05:04:37;;;;;;;;;;;;;;;24.28;56.74;100392.97;5087708;28;917;-25
2023/08/04 05:07:02;;;;;;;;;;;;;;;21.17;63.80;100386.56;5093641;28;1034;-24
2023/08/04 05:09:28;;;;;;;;;;;;;;;23.70;57.34;100383.16;5083925;28;1987;-26
2023/08/04 05:11:53;;;;;;;;;;;;;;;22.19;59.66;100391.75;5092331;28;1038;-27
2023/08/04 05:14:19;;;;;;;;;;;;;;;21.38;60.45;100382.75;5059855;28;1055;-26
2023/08/04 05:16:45;;;;;;;;;;;;;;;21.28;62.89;100384.66;5095155;28;1179;-25
2023/08/04 05:19:10;;;;;;;;;;;;;;;24.11;54.44;100390.31;5092711;28;1162;-27
2023/08/04 05:21:36;;;;;;;;;;;;;;;22.13;56.68;100388.72;5084251;28;1131;-28
2023/08/04 05:24:01;;;;;;;;;;;;;;;21.32;57.83;100383.34;5099216;28;1008;-26
2023/08/04 05:26:27;;;;;;;;;;;;;;;21.26;57.30;100375.94;5098904;28;1125;-25
2023/08/04 05:28:52;;;;;;;;;;;;;;;21.31;60.50;100383.50;5090879;28;1984;-28
2023/08/04 05:31:18;;;;;;;;;;;;;;;24.17;51.11;100395.03;5098533;28;1367;-24
2023/08/04 05:33:44;;;;;;;;;;;;;;;21.99;55.18;100389.25;5079167;28;972;-24
2023/08/04 05:36:09;;;;;;;;;;;;;;;21.61;55.87;100384.09;5078622;28;1102;-23
2023/08/04 05:38:35;;;;;;;;;;;;;;;22.97;54.38;100384.56;5085004;28;1055;-23
2023/08/04 05:41:04;;;;;;;;;;;;;;;23.52;52.05;100389.53;5080970;28;1181;-22
2023/08/04 05:43:30;;;;;;;;;;;;;;;21.90;55.54;100385.72;5090515;28;1151;-25
2023/08/04 05:45:58;;;;;;;;;;;;;;;23.37;54.00;100389.34;5093350;28;1117;-26
2023/08/04 05:48:24;;;;;;;;;;;;;;;23.27;52.96;100389.50;5078632;28;1971;-25
2023/08/04 05:50:53;;;;;;;;;;;;;;;21.80;55.80;100393.00;5084445;28;1046;-27
2023/08/04 05:53:18;;;;;;;;;;;;;;;21.64;55.73;100395.34;5076387;28;897;-27
2023/08/04 05:55:44;;;;;;;;;;;;;;;22.22;56.67;100397.63;5091677;28;1034;-24
2023/08/04 05:58:09;;;;;;;;;;;;;;;23.90;51.89;100397.06;5090757;28;1166;-23
2023/08/04 06:00:35;;;;;;;;;;;;;;;21.44;56.72;100397.34;5084800;28;1134;-28
2023/08/04 06:03:01;;;;;;;;;;;;;;;21.13;56.49;100397.72;5085200;28;1189;-25
2023/08/04 06:05:26;;;;;;;;;;;;;;;20.92;56.45;100398.78;5094018;28;1035;-24
2023/08/04 06:07:53;;;;;;;;;;;;;;;22.82;54.66;100410.34;5096941;28;1914;-27
2023/08/04 06:10:19;;;;;;;;;;;;;;;22.65;52.34;100406.75;5098476;28;1319;-24
2023/08/04 06:12:45;;;;;;;;;;;;;;;21.41;55.79;100406.53;5087178;28;1051;-25
2023/08/04 06:15:11;;;;;;;;;;;;;;;21.07;55.79;100406.34;5082568;28;1019;-27
2023/08/04 06:17:36;;;;;;;;;;;;;;;23.17;53.22;100411.09;5087869;28;948;-28
2023/08/04 06:20:04;;;;;;;;;;;;;;;23.05;51.99;100409.72;5083784;28;1234;-25
2023/08/04 06:22:29;;;;;;;;;;;;;;;21.61;55.17;100408.19;5097122;28;1109;-25
2023/08/04 06:24:55;;;;;;;;;;;;;;;21.29;60.05;100403.25;5079052;28;1356;-24
2023/08/04 06:27:20;;;;;;;;;;;;;;;24.08;50.34;100407.63;5096839;28;1359;-24
2023/08/04 06:29:46;;;;;;;;;;;;;;;21.88;54.57;100401.09;5093903;28;1977;-25
2023/08/04 06:32:12;;;;;;;;;;;;;;;21.21;55.83;100394.28;5097731;28;1387;-25
2023/08/04 06:34:38;;;;;;;;;;;;;;;23.15;53.86;100412.25;5097421;28;1450;-27
2023/08/04 06:37:04;;;;;;;;;;;;;;;22.81;53.08;100408.63;5097135;28;1296;-27
2023/08/04 06:39:29;;;;;;;;;;;;;;;21.43;55.58;100408.22;5097647;28;1380;-29
2023/08/04 06:41:55;;;;;;;;;;;;;;;21.15;59.24;100406.44;5097423;28;875;-28
2023/08/04 06:44:20;;;;;;;;;;;;;;;23.72;51.18;100405.31;5092254;28;1050;-24
2023/08/04 06:46:46;;;;;;;;;;;;;;;22.00;54.69;100409.72;5077355;28;1145;-25
2023/08/04 06:49:11;;;;;;;;;;;;;;;21.22;55.66;100404.84;5095839;28;1897;-26
2023/08/04 06:51:37;;;;;;;;;;;;;;;20.82;56.18;100408.72;5097618;28;1162;-27
2023/08/04 06:54:02;;;;;;;;;;;;;;;22.98;52.83;100410.38;5090011;28;1334;-25
2023/08/04 06:56:28;;;;;;;;;;;;;;;22.38;53.13;100417.47;5096824;28;1147;-27
2023/08/04 06:58:54;;;;;;;;;;;;;;;21.04;56.13;100413.69;5087077;28;1077;-23
2023/08/04 07:01:19;;;;;;;;;;;;;;;20.99;59.12;100413.28;5079920;28;1073;-26
2023/08/04 07:03:45;;;;;;;;;;;;;;;23.41;51.71;100409.50;5096959;28;1433;-25
2023/08/04 07:06:11;;;;;;;;;;;;;;;21.63;55.15;100408.91;5091031;28;1023;-24
2023/08/04 07:08:36;;;;;;;;;;;;;;;20.98;56.47;100408.94;5076624;28;1906;-26
2023/08/04 07:11:02;;;;;;;;;;;;;;;20.75;56.52;100408.47;5089891;28;1010;-23
2023/08/04 07:13:29;;;;;;;;;;;;;;;22.54;53.49;100415.91;5084840;28;1114;-27
2023/08/04 07:15:58;;;;;;;;;;;;;;;23.24;51.57;100413.94;5096548;28;1523;-24
2023/08/04 07:18:23;;;;;;;;;;;;;;;21.28;55.68;100412.28;5090022;28;1137;-25
2023/08/04 07:20:49;;;;;;;;;;;;;;;22.65;54.01;100420.16;5090544;28;1194;-27
2023/08/04 07:23:15;;;;;;;;;;;;;;;23.36;52.27;100419.84;5092602;28;1383;-26
2023/08/04 07:25:40;;;;;;;;;;;;;;;21.33;56.07;100413.63;5096933;28;1113;-27
2023/08/04 07:28:06;;;;;;;;;;;;;;;20.98;56.80;100424.13;5093757;28;1902;-24
2023/08/04 07:30:32;;;;;;;;;;;;;;;20.83;56.84;100421.09;5094061;28;1398;-24
2023/08/04 07:32:58;;;;;;;;;;;;;;;22.65;53.76;100418.31;5096583;28;1402;-26
2023/08/04 07:35:23;;;;;;;;;;;;;;;23.40;51.83;100423.06;5090552;28;1401;-25
2023/08/04 07:37:49;;;;;;;;;;;;;;;21.48;56.18;100424.66;5088555;28;1110;-26
2023/08/04 07:40:15;;;;;;;;;;;;;;;21.50;55.55;100426.16;5083966;28;1049;-24
2023/08/04 07:42:41;;;;;;;;;;;;;;;21.17;55.81;100425.84;5076196;28;1068;-27
2023/08/04 07:45:07;;;;;;;;;;;;;;;21.02;55.83;100428.22;5087982;28;1396;-27
2023/08/04 07:47:32;;;;;;;;;;;;;;;21.60;58.39;100426.13;5089440;28;1348;-24
2023/08/04 07:49:58;;;;;;;;;;;;;;;24.04;50.01;100427.75;5079827;28;1977;-27
2023/08/04 07:52:23;;;;;;;;;;;;;;;21.49;54.05;100429.00;5095325;28;1122;-23
2023/08/04 07:54:49;;;;;;;;;;;;;;;20.83;53.96;100429.09;5079126;28;1049;-27
2023/08/04 07:57:15;;;;;;;;;;;;;;;23.23;51.30;100431.06;5086465;28;1085;-25
2023/08/04 07:59:40;;;;;;;;;;;;;;;22.31;52.46;100433.34;5079429;28;1245;-26
2023/08/04 08:02:06;;;;;;;;;;;;;;;21.13;55.87;100436.03;5068122;28;1516;-23
2023/08/04 08:04:31;;;;;;;;;;;;;;;20.78;56.45;100432.22;5079005;28;1342;-25
2023/08/04 08:06:57;;;;;;;;;;;;;;;20.65;56.81;100433.41;5075985;28;1050;-27
2023/08/04 08:09:22;;;;;;;;;;;;;;;20.63;56.90;100439.88;5086472;28;1969;-25
2023/08/04 08:11:48;;;;;;;;;;;;;;;22.27;55.03;100435.50;5093666;28;1235;-26
2023/08/04 08:14:16;;;;;;;;;;;;;;;23.53;51.37;100433.31;5080869;28;1125;-26
2023/08/04 08:16:41;;;;;;;;;;;;;;;21.40;54.17;100434.28;5092451;28;1312;-26
2023/08/04 08:19:07;;;;;;;;;;;;;;;20.75;55.82;100436.03;5084904;28;1257;-27
2023/08/04 08:21:33;;;;;;;;;;;;;;;20.72;57.13;100438.19;5075674;28;1015;-25
2023/08/04 08:23:58;;;;;;;;;;;;;;;20.60;58.27;100440.19;5086248;28;1527;-25
2023/08/04 08:26:24;;;;;;;;;;;;;;;20.80;58.22;100441.78;5082222;28;1021;-25
2023/08/04 08:28:50;;;;;;;;;;;;;;;20.71;58.58;100436.47;5092912;28;1963;-24
2023/08/04 08:31:15;;;;;;;;;;;;;;;20.97;61.25;100433.16;5093129;28;1229;-25
2023/08/04 08:33:41;;;;;;;;;;;;;;;23.62;53.13;100444.91;5095322;28;1122;-24
2023/08/04 08:36:06;;;;;;;;;;;;;;;22.08;55.61;100439.25;5096020;28;1081;-26
2023/08/04 08:38:32;;;;;;;;;;;;;;;21.06;57.27;100432.25;5095357;28;1101;-24
2023/08/04 08:40:58;;;;;;;;;;;;;;;20.91;58.34;100437.22;5094690;28;1124;-28
2023/08/04 08:43:23;;;;;;;;;;;;;;;20.83;59.03;100437.13;5095025;28;1187;-26
2023/08/04 08:45:49;;;;;;;;;;;;;;;20.95;59.35;100437.81;5095247;28;1343;-28
2023/08/04 08:48:14;;;;;;;;;;;;;;;20.96;59.31;100434.97;5076993;28;1961;-25
2023/08/04 08:50:41;;;;;;;;;;;;;;;20.97;59.67;100435.84;5077713;28;1316;-24
2023/08/04 08:53:08;;;;;;;;;;;;;;;22.34;58.89;100448.25;5077441;28;1367;-25
2023/08/04 08:55:33;;;;;;;;;;;;;;;23.73;54.33;100447.25;5091359;28;1065;-24
2023/08/04 08:57:59;;;;;;;;;;;;;;;21.60;58.27;100447.53;5096044;28;1312;-25
2023/08/04 09:00:25;;;;;;;;;;;;;;;21.19;58.80;100439.91;5081205;28;1407;-26
2023/08/04 09:02:50;;;;;;;;;;;;;;;21.08;59.63;100445.47;5099390;28;1129;-25
2023/08/04 09:05:16;;;;;;;;;;;;;;;21.06;59.35;100453.66;5077574;28;1426;-25
2023/08/04 09:07:42;;;;;;;;;;;;;;;20.99;59.95;100452.53;5099398;28;1988;-25
2023/08/04 09:10:08;;;;;;;;;;;;;;;21.79;61.69;100455.59;5098975;28;1116;-24
2023/08/04 09:12:34;;;;;;;;;;;;;;;24.45;52.27;100451.09;5099380;28;1149;-27
2023/08/04 09:15:01;;;;;;;;;;;;;;;21.88;57.40;100444.78;5080935;28;1406;-24
2023/08/04 09:17:33;;;;;;;;;;;;;;;21.29;59.31;100450.53;5093861;28;1019;-25
2023/08/04 09:19:59;;;;;;;;;;;;;;;21.13;59.90;100452.06;5094805;28;1324;-29
2023/08/04 09:22:25;;;;;;;;;;;;;;;21.17;59.43;100448.09;5098422;28;1312;-28
2023/08/04 09:24:54;;;;;;;;;;;;;;;21.19;59.70;100449.78;5098465;28;1089;-24
2023/08/04 09:27:27;;;;;;;;;;;;;;;21.40;63.24;100444.97;5088680;28;1138;-26
2023/08/04 09:29:56;;;;;;;;;;;;;;;24.43;51.75;100455.78;5082671;28;2006;-27
2023/08/04 09:32:22;;;;;;;;;;;;;;;21.83;56.46;100454.25;5092459;28;1185;-25
2023/08/04 09:34:54;;;;;;;;;;;;;;;21.12;56.92;100449.56;5086791;28;1090;-23
2023/08/04 09:37:19;;;;;;;;;;;;;;;20.99;57.69;100450.72;5073919;28;1370;-26
2023/08/04 09:39:45;;;;;;;;;;;;;;;20.88;58.44;100450.91;5086414;28;1099;-26
2023/08/04 09:42:11;;;;;;;;;;;;;;;20.87;58.36;100458.06;5091002;28;1122;-24
2023/08/04 09:44:36;;;;;;;;;;;;;;;20.82;58.63;100452.31;5098174;28;1624;-24
2023/08/04 09:47:02;;;;;;;;;;;;;;;20.77;58.85;100455.44;5098558;28;1158;-28
2023/08/04 09:49:28;;;;;;;;;;;;;;;23.18;54.04;100452.19;5098163;28;1902;-27
2023/08/04 09:51:55;;;;;;;;;;;;;;;22.63;53.67;100458.69;5069294;28;1444;-24
2023/08/04 09:54:21;;;;;;;;;;;;;;;21.34;55.18;100456.28;5089690;28;1390;-26
2023/08/04 09:56:47;;;;;;;;;;;;;;;20.99;56.68;100440.03;5098415;28;1280;-26
2023/08/04 09:59:12;;;;;;;;;;;;;;;20.82;57.33;100444.28;5098602;28;1330;-24
2023/08/04 10:01:39;;;;;;;;;;;;;;;20.88;57.45;100446.41;5098343;28;1344;-25
2023/08/04 10:04:05;;;;;;;;;;;;;;;20.80;57.37;100448.97;5098599;28;1117;-25
2023/08/04 10:06:30;;;;;;;;;;;;;;;20.75;57.85;100437.88;5079155;28;996;-27
2023/08/04 10:08:56;;;;;;;;;;;;;;;21.22;61.32;100441.47;5080304;28;1917;-27
2023/08/04 10:11:22;;;;;;;;;;;;;;;24.29;50.35;100438.50;5098443;28;1276;-25
2023/08/04 10:13:48;;;;;;;;;;;;;;;21.65;54.99;100436.34;5098396;28;1082;-29
2023/08/04 10:16:14;;;;;;;;;;;;;;;20.98;55.35;100448.19;5097551;28;1159;-24
2023/08/04 10:18:49;;;;;;;;;;;;;;;20.80;56.90;100443.63;5072433;28;1383;-25
2023/08/04 10:21:15;;;;;;;;;;;;;;;20.65;57.28;100437.91;5098300;28;1074;-23
2023/08/04 10:23:41;;;;;;;;;;;;;;;20.67;57.58;100438.59;5092193;28;1340;-26
2023/08/04 10:26:08;;;;;;;;;;;;;;;20.66;57.83;100443.13;5090821;28;1336;-24
2023/08/04 10:28:33;;;;;;;;;;;;;;;20.96;57.01;100442.16;5069900;28;1975;-25
2023/08/04 10:31:06;;;;;;;;;;;;;;;23.14;53.04;100437.44;5090275;28;1073;-24
2023/08/04 10:33:32;;;;;;;;;;;;;;;22.24;53.37;100440.31;5090751;28;1165;-24
2023/08/04 10:36:08;;;;;;;;;;;;;;;21.15;54.99;100433.19;5087227;28;1015;-25
2023/08/04 10:38:44;;;;;;;;;;;;;;;20.85;56.32;100441.34;5097636;28;1273;-23
2023/08/04 10:41:09;;;;;;;;;;;;;;;20.78;56.65;100438.44;5084106;28;1134;-24
2023/08/04 10:43:37;;;;;;;;;;;;;;;20.86;56.53;100443.03;5084389;28;908;-25
2023/08/04 10:46:05;;;;;;;;;;;;;;;20.71;57.18;100436.47;5089634;28;1076;-29
2023/08/04 10:48:34;;;;;;;;;;;;;;;20.96;56.66;100448.34;5078463;28;1985;-23
2023/08/04 10:51:00;;;;;;;;;;;;;;;22.48;54.84;100450.38;5089482;28;1166;-23
2023/08/04 10:53:25;;;;;;;;;;;;;;;23.72;51.40;100438.34;5091314;28;1062;-25
2023/08/04 10:55:55;;;;;;;;;;;;;;;21.50;54.39;100446.75;5089363;28;897;-24
2023/08/04 10:58:21;;;;;;;;;;;;;;;20.90;54.64;100444.41;5097072;28;1046;-24
2023/08/04 11:00:46;;;;;;;;;;;;;;;20.89;55.65;100445.41;5084173;28;1471;-27
2023/08/04 11:03:19;;;;;;;;;;;;;;;20.82;55.91;100438.94;5077272;28;1019;-23
2023/08/04 11:05:45;;;;;;;;;;;;;;;21.01;56.36;100448.75;5077443;28;1056;-24
2023/08/04 11:08:10;;;;;;;;;;;;;;;21.01;56.69;100453.25;5078843;28;1981;-27
2023/08/04 11:10:36;;;;;;;;;;;;;;;21.17;60.47;100453.44;5095810;28;1038;-26
2023/08/04 11:13:02;;;;;;;;;;;;;;;23.44;52.53;100448.59;5084024;28;1138;-26
2023/08/04 11:15:27;;;;;;;;;;;;;;;22.20;54.87;100449.69;5084821;28;1189;-25
2023/08/04 11:17:53;;;;;;;;;;;;;;;21.63;55.82;100449.03;5083320;28;1046;-29
2023/08/04 11:20:19;;;;;;;;;;;;;;;21.49;55.78;100440.56;5096521;28;1384;-27
2023/08/04 11:22:45;;;;;;;;;;;;;;;21.32;55.99;100447.56;5096763;28;1058;-23
2023/08/04 11:25:11;;;;;;;;;;;;;;;21.19;56.71;100437.25;5083301;28;1030;-23
2023/08/04 11:27:36;;;;;;;;;;;;;;;21.57;60.28;100438.97;5068321;28;1131;-23
2023/08/04 11:30:02;;;;;;;;;;;;;;;23.83;51.47;100442.56;5077446;28;1898;-25
2023/08/04 11:32:27;;;;;;;;;;;;;;;22.09;55.53;100440.06;5086659;28;973;-24
2023/08/04 11:34:53;;;;;;;;;;;;;;;21.65;56.16;100439.03;5094640;28;1243;-24
2023/08/04 11:37:19;;;;;;;;;;;;;;;21.56;56.45;100442.59;5096056;28;1300;-26
2023/08/04 11:39:45;;;;;;;;;;;;;;;21.53;56.21;100441.09;5091269;28;1130;-24
2023/08/04 11:42:11;;;;;;;;;;;;;;;21.36;56.66;100448.09;5076165;28;1414;-24
2023/08/04 11:44:39;;;;;;;;;;;;;;;21.96;59.02;100452.03;5096549;28;1395;-26
2023/08/04 11:47:04;;;;;;;;;;;;;;;24.44;50.18;100452.06;5085027;28;1114;-24
2023/08/04 11:49:30;;;;;;;;;;;;;;;22.03;54.80;100449.56;5093393;28;1907;-25
2023/08/04 11:51:55;;;;;;;;;;;;;;;21.57;55.56;100444.31;5085429;28;1038;-25
2023/08/04 11:54:24;;;;;;;;;;;;;;;21.41;55.81;100445.81;5079968;28;1031;-25
2023/08/04 11:56:53;;;;;;;;;;;;;;;21.20;56.25;100438.09;5096564;28;1469;-23
2023/08/04 11:59:19;;;;;;;;;;;;;;;21.16;56.39;100443.75;5077222;28;1205;-23
2023/08/04 12:01:45;;;;;;;;;;;;;;;21.45;59.84;100435.66;5088054;28;1046;-23
2023/08/04 12:04:23;;;;;;;;;;;;;;;24.04;50.61;100438.50;5094226;28;1183;-24
2023/08/04 12:07:02;;;;;;;;;;;;;;;22.12;53.63;100429.88;5095533;28;1149;-24
2023/08/04 12:09:28;;;;;;;;;;;;;;;21.40;55.31;100420.88;5084838;28;1976;-23
2023/08/04 12:11:54;;;;;;;;;;;;;;;21.21;55.91;100427.22;5093425;28;1180;-25
2023/08/04 12:14:20;;;;;;;;;;;;;;;20.99;56.57;100421.31;5096328;28;1288;-24
2023/08/04 12:16:51;;;;;;;;;;;;;;;21.04;56.40;100420.84;5096230;28;1111;-25
2023/08/04 12:19:18;;;;;;;;;;;;;;;21.23;58.72;100429.75;5096084;28;1162;-25
2023/08/04 12:21:43;;;;;;;;;;;;;;;23.97;50.42;100427.59;5082588;28;1138;-23
2023/08/04 12:24:09;;;;;;;;;;;;;;;22.07;53.21;100421.47;5095987;28;1086;-24
2023/08/04 12:26:34;;;;;;;;;;;;;;;21.24;53.82;100418.91;5088770;28;1019;-24
2023/08/04 12:29:00;;;;;;;;;;;;;;;21.03;55.18;100416.50;5099949;28;1964;-24
2023/08/04 12:31:25;;;;;;;;;;;;;;;21.00;55.40;100412.28;5098583;28;885;-23
2023/08/04 12:33:51;;;;;;;;;;;;;;;20.96;55.51;100413.59;5086067;28;1135;-23
2023/08/04 12:36:17;;;;;;;;;;;;;;;20.97;55.78;100406.41;5079998;28;1094;-22
2023/08/04 12:38:42;;;;;;;;;;;;;;;20.86;56.13;100407.41;5093451;28;1229;-24
2023/08/04 12:41:09;;;;;;;;;;;;;;;22.15;55.44;100409.97;5093315;28;1201;-27